Time;durP1;ratioP1;P1;durP2;ratioP2;P2;SDS_P1;SDS_P2;PMS_P1;PMS_P2;Temp;Humidity;BMP_temperature;BMP_pressure;BME280_temperature;BME280_humidity;BME280_pressure;Samples;Min_cycle;Max_cycle;Signal;HPM_P1;HPM_P2
2022/11/12 00:00:58;;;;;;;;;;;8.20;99.90;;;;;;5017113;28;19929;-84
2022/11/12 00:03:23;;;;;;;;;;;8.20;99.90;;;;;;5066982;28;19925;-84
2022/11/12 00:05:50;;;;;;;;;;;8.20;99.90;;;;;;5049974;28;19932;-84
2022/11/12 00:08:16;;;;;;;;;;;8.10;99.90;;;;;;5067011;28;19936;-84
2022/11/12 00:10:42;;;;;;;;;;;8.10;99.90;;;;;;5050002;28;19925;-84
2022/11/12 00:13:07;;;;;;;;;;;8.00;99.90;;;;;;5049941;28;19926;-84
2022/11/12 00:15:33;;;;;;;;;;;8.00;99.90;;;;;;5049976;28;19932;-84
2022/11/12 00:17:58;;;;;;;;;;;7.90;99.90;;;;;;5066711;28;19926;-84
2022/11/12 00:20:24;;;;;;;;;;;8.00;99.90;;;;;;5050279;28;19979;-84
2022/11/12 00:22:49;;;;;;;;;;;7.90;99.90;;;;;;5049473;28;20385;-86
2022/11/12 00:25:15;;;;;;;;;;;7.90;99.90;;;;;;5033322;28;19979;-84
2022/11/12 00:27:41;;;;;;;;;;;7.90;99.90;;;;;;5033084;28;19925;-84
2022/11/12 00:30:06;;;;;;;;;;;7.90;99.90;;;;;;5033021;28;20019;-84
2022/11/12 00:32:34;;;;;;;;;;;7.80;99.90;;;;;;5066480;28;19925;-84
2022/11/12 00:35:00;;;;;;;;;;;7.80;99.90;;;;;;5065375;28;19929;-83
2022/11/12 00:37:25;;;;;;;;;;;7.80;99.90;;;;;;5000234;28;20032;-84
2022/11/12 00:39:51;;;;;;;;;;;7.70;99.90;;;;;;5000216;28;19925;-84
2022/11/12 00:42:16;;;;;;;;;;;7.70;99.90;;;;;;5016403;28;19933;-84
2022/11/12 00:44:42;;;;;;;;;;;7.60;99.90;;;;;;5016288;28;19925;-84
2022/11/12 00:47:08;;;;;;;;;;;7.60;99.90;;;;;;5049259;28;19925;-88
2022/11/12 00:49:33;;;;;;;;;;;7.70;99.90;;;;;;5016001;28;19925;-84
2022/11/12 00:51:59;;;;;;;;;;;7.60;99.90;;;;;;5049175;28;19932;-84
2022/11/12 00:54:24;;;;;;;;;;;7.60;99.90;;;;;;5002823;28;20019;-84
2022/11/12 00:56:50;;;;;;;;;;;7.60;99.90;;;;;;5063317;28;19926;-84
2022/11/12 00:59:15;;;;;;;;;;;7.60;99.90;;;;;;5016335;28;19997;-84
2022/11/12 01:01:41;;;;;;;;;;;7.50;99.90;;;;;;5016074;28;19931;-85
2022/11/12 01:04:07;;;;;;;;;;;7.60;99.90;;;;;;5016684;28;19925;-84
2022/11/12 01:06:33;;;;;;;;;;;7.60;99.90;;;;;;5053909;28;19931;-84
2022/11/12 01:08:58;;;;;;;;;;;7.60;99.90;;;;;;5016027;28;20032;-84
2022/11/12 01:11:25;;;;;;;;;;;7.70;99.90;;;;;;5032643;28;19932;-84
2022/11/12 01:13:56;;;;;;;;;;;7.60;99.90;;;;;;5016140;28;19958;-84
2022/11/12 01:16:22;;;;;;;;;;;7.50;99.90;;;;;;5065480;28;19960;-84
2022/11/12 01:18:51;;;;;;;;;;;7.60;99.90;;;;;;5016084;28;19933;-84
2022/11/12 01:21:17;;;;;;;;;;;7.60;99.90;;;;;;5016140;28;20023;-84
2022/11/12 01:23:42;;;;;;;;;;;7.60;99.90;;;;;;5032487;28;20369;-84
2022/11/12 01:26:09;;;;;;;;;;;7.60;99.90;;;;;;5032561;28;19925;-83
2022/11/12 01:28:35;;;;;;;;;;;7.60;99.90;;;;;;5016243;28;20372;-84
2022/11/12 01:31:11;;;;;;;;;;;7.60;99.90;;;;;;5065600;28;19925;-84
2022/11/12 01:33:37;;;;;;;;;;;7.60;99.90;;;;;;5066046;28;19931;-84
2022/11/12 01:36:03;;;;;;;;;;;7.50;99.90;;;;;;4999459;28;20019;-84
2022/11/12 01:38:32;;;;;;;;;;;7.60;99.90;;;;;;5065752;28;20439;-84
2022/11/12 01:40:57;;;;;;;;;;;7.50;99.90;;;;;;5015732;28;19925;-84
2022/11/12 01:43:23;;;;;;;;;;;7.50;99.90;;;;;;5032368;28;19932;-84
2022/11/12 01:45:49;;;;;;;;;;;7.40;99.90;;;;;;5016099;28;20027;-85
2022/11/12 01:48:23;;;;;;;;;;;7.50;99.90;;;;;;5052887;28;20263;-84
2022/11/12 01:50:49;;;;;;;;;;;7.40;99.90;;;;;;5069621;28;19929;-84
2022/11/12 01:53:15;;;;;;;;;;;7.40;99.90;;;;;;5068908;28;20380;-84
2022/11/12 01:55:40;;;;;;;;;;;7.50;99.90;;;;;;5019717;28;19925;-84
2022/11/12 01:58:11;;;;;;;;;;;7.50;99.90;;;;;;5019139;28;19976;-84
2022/11/12 02:00:37;;;;;;;;;;;7.50;99.90;;;;;;5052747;28;19932;-84
2022/11/12 02:03:06;;;;;;;;;;;7.40;99.90;;;;;;5035548;28;19940;-84
2022/11/12 02:05:33;;;;;;;;;;;7.40;99.90;;;;;;5052555;28;19925;-84
2022/11/12 02:07:59;;;;;;;;;;;7.30;99.90;;;;;;5034994;28;20262;-84
2022/11/12 02:10:25;;;;;;;;;;;7.20;99.90;;;;;;5051716;28;19951;-84
2022/11/12 02:15:36;;;;;;;;;;;7.30;99.90;;;;;;5035929;28;19955;-84
2022/11/12 02:18:02;;;;;;;;;;;7.20;99.90;;;;;;5068942;28;19925;-85
2022/11/12 02:20:32;;;;;;;;;;;7.20;99.90;;;;;;5068909;28;19925;-84
2022/11/12 02:22:57;;;;;;;;;;;7.30;99.90;;;;;;5051808;28;19925;-84
2022/11/12 02:25:23;;;;;;;;;;;7.20;99.90;;;;;;5035587;28;20361;-84
2022/11/12 02:27:50;;;;;;;;;;;7.20;99.90;;;;;;5035469;28;20032;-86
2022/11/12 02:30:16;;;;;;;;;;;7.30;99.90;;;;;;5052105;28;19929;-84
2022/11/12 02:32:42;;;;;;;;;;;7.30;99.90;;;;;;5068836;28;19925;-84
2022/11/12 02:35:08;;;;;;;;;;;7.40;99.90;;;;;;5051860;28;20388;-84
2022/11/12 02:37:36;;;;;;;;;;;7.40;99.90;;;;;;5035321;28;19931;-84
2022/11/12 02:40:02;;;;;;;;;;;7.40;99.90;;;;;;5051740;28;19925;-84
2022/11/12 02:42:27;;;;;;;;;;;7.30;99.90;;;;;;5051661;28;20288;-84
2022/11/12 02:44:53;;;;;;;;;;;7.40;99.90;;;;;;5002325;28;19932;-85
2022/11/12 02:47:18;;;;;;;;;;;7.30;99.90;;;;;;5035174;28;19975;-84
2022/11/12 02:49:44;;;;;;;;;;;7.40;99.90;;;;;;5018799;28;19940;-84
2022/11/12 02:52:10;;;;;;;;;;;7.50;99.90;;;;;;5034522;28;19928;-84
2022/11/12 02:54:35;;;;;;;;;;;7.50;99.90;;;;;;5052146;28;19929;-84
2022/11/12 02:57:01;;;;;;;;;;;7.50;99.90;;;;;;5017958;28;19978;-84
2022/11/12 02:59:26;;;;;;;;;;;7.60;99.90;;;;;;5034194;28;19925;-84
2022/11/12 03:01:52;;;;;;;;;;;7.60;99.90;;;;;;5051306;28;19925;-85
2022/11/12 03:04:18;;;;;;;;;;;7.70;99.90;;;;;;5051462;28;19929;-84
2022/11/12 03:06:43;;;;;;;;;;;7.80;99.90;;;;;;5068101;28;19925;-84
2022/11/12 03:09:10;;;;;;;;;;;7.80;99.90;;;;;;5018052;28;19931;-84
2022/11/12 03:11:35;;;;;;;;;;;7.90;99.90;;;;;;5051366;28;19964;-84
2022/11/12 03:14:01;;;;;;;;;;;7.90;99.90;;;;;;5051249;28;19998;-84
2022/11/12 03:16:27;;;;;;;;;;;8.00;99.90;;;;;;5034822;28;20383;-84
2022/11/12 03:18:52;;;;;;;;;;;8.00;99.90;;;;;;5050886;28;19928;-84
2022/11/12 03:21:18;;;;;;;;;;;8.10;99.90;;;;;;5034344;28;19925;-84
2022/11/12 03:23:43;;;;;;;;;;;8.10;99.90;;;;;;5034430;28;20024;-84
2022/11/12 03:26:09;;;;;;;;;;;8.10;99.90;;;;;;5050649;28;19925;-84
2022/11/12 03:28:36;;;;;;;;;;;8.20;99.90;;;;;;5017428;28;19925;-84
2022/11/12 03:31:01;;;;;;;;;;;8.20;99.90;;;;;;5016940;28;19979;-84
2022/11/12 03:33:27;;;;;;;;;;;8.20;99.90;;;;;;5050897;28;19929;-84
2022/11/12 03:35:53;;;;;;;;;;;8.20;99.90;;;;;;5017598;28;19972;-84
2022/11/12 03:38:19;;;;;;;;;;;8.30;99.90;;;;;;5050684;28;19925;-84
2022/11/12 03:40:44;;;;;;;;;;;8.30;99.90;;;;;;5016995;28;19925;-84
2022/11/12 03:43:10;;;;;;;;;;;8.30;99.90;;;;;;5000506;28;19925;-84
2022/11/12 03:45:36;;;;;;;;;;;8.30;99.90;;;;;;5033740;28;19929;-84
2022/11/12 03:48:01;;;;;;;;;;;8.40;99.90;;;;;;5017069;28;20369;-85
2022/11/12 03:50:28;;;;;;;;;;;8.40;99.90;;;;;;5017011;28;19932;-83
2022/11/12 03:52:55;;;;;;;;;;;8.40;99.90;;;;;;5016842;28;19925;-84
2022/11/12 03:55:22;;;;;;;;;;;8.30;99.90;;;;;;5066717;28;19925;-84
2022/11/12 03:57:48;;;;;;;;;;;8.40;99.90;;;;;;5017356;28;19975;-84
2022/11/12 04:00:14;;;;;;;;;;;8.40;99.90;;;;;;5000371;28;19925;-84
2022/11/12 04:02:40;;;;;;;;;;;8.40;99.90;;;;;;5000498;28;19925;-84
2022/11/12 04:10:54;;;;;;;;;;;8.40;99.90;;;;;;5033172;28;19941;-84
2022/11/12 04:13:26;;;;;;;;;;;8.50;99.90;;;;;;5049995;28;19929;-84
2022/11/12 04:21:49;;;;;;;;;;;8.50;99.90;;;;;;5033713;28;19933;-84
2022/11/12 04:26:21;;;;;;;;;;;8.50;99.90;;;;;;5033217;28;19926;-84
2022/11/12 04:26:54;;;;;;;;;;;8.60;99.90;;;;;;5033593;28;19925;-83
2022/11/12 04:32:04;;;;;;;;;;;8.60;99.90;;;;;;5066044;28;20373;-85
2022/11/12 04:34:30;;;;;;;;;;;8.50;99.90;;;;;;5033085;28;19925;-84
2022/11/12 04:36:55;;;;;;;;;;;8.50;99.90;;;;;;5049641;28;19955;-84
2022/11/12 04:39:21;;;;;;;;;;;8.40;99.90;;;;;;5066283;28;20019;-84
2022/11/12 04:47:15;;;;;;;;;;;8.40;99.90;;;;;;5013162;28;19925;-84
2022/11/12 04:49:40;;;;;;;;;;;8.40;99.90;;;;;;5046513;28;20013;-84
2022/11/12 04:52:06;;;;;;;;;;;8.40;99.90;;;;;;4996674;28;19929;-85
2022/11/12 04:54:32;;;;;;;;;;;8.40;99.90;;;;;;5019092;28;20404;-84
2022/11/12 04:56:58;;;;;;;;;;;8.40;99.90;;;;;;5032800;28;19933;-84
2022/11/12 04:59:23;;;;;;;;;;;8.50;99.90;;;;;;5049381;28;19971;-84
2022/11/12 05:01:49;;;;;;;;;;;8.50;99.90;;;;;;5065876;28;19925;-84
2022/11/12 05:04:14;;;;;;;;;;;8.50;99.90;;;;;;5065966;28;19932;-84
2022/11/12 05:06:52;;;;;;;;;;;8.50;99.90;;;;;;5049276;28;19925;-84
2022/11/12 05:09:18;;;;;;;;;;;8.50;99.90;;;;;;5049341;28;20056;-84
2022/11/12 05:11:44;;;;;;;;;;;8.50;99.90;;;;;;5049412;28;19933;-85
2022/11/12 05:14:10;;;;;;;;;;;8.60;99.90;;;;;;5048984;28;19926;-85
2022/11/12 05:16:35;;;;;;;;;;;8.60;99.90;;;;;;5016039;28;20067;-84
2022/11/12 05:19:01;;;;;;;;;;;8.70;99.90;;;;;;5016344;28;20388;-84
2022/11/12 05:24:11;;;;;;;;;;;8.70;99.90;;;;;;5050694;28;20292;-86
2022/11/12 05:26:37;;;;;;;;;;;8.70;99.90;;;;;;5020393;28;19925;-83
2022/11/12 05:29:02;;;;;;;;;;;8.70;99.90;;;;;;5019989;28;20012;-84
2022/11/12 05:31:28;;;;;;;;;;;8.70;99.90;;;;;;5020087;28;19925;-84
2022/11/12 05:33:54;;;;;;;;;;;8.70;99.90;;;;;;5036466;28;19925;-84
2022/11/12 05:36:20;;;;;;;;;;;8.80;99.90;;;;;;5019793;28;20422;-84
2022/11/12 05:38:46;;;;;;;;;;;8.70;99.90;;;;;;5003682;28;20470;-84
2022/11/12 05:41:11;;;;;;;;;;;8.80;99.90;;;;;;5003543;28;19929;-84
2022/11/12 05:43:37;;;;;;;;;;;8.70;99.90;;;;;;5052727;28;20003;-84
2022/11/12 05:46:03;;;;;;;;;;;8.70;99.90;;;;;;5019636;28;19972;-85
2022/11/12 05:48:28;;;;;;;;;;;8.70;99.90;;;;;;5003131;28;19925;-84
2022/11/12 05:50:54;;;;;;;;;;;8.80;99.90;;;;;;5069351;28;19925;-84
2022/11/12 05:53:19;;;;;;;;;;;8.70;99.90;;;;;;5035608;28;19925;-84
2022/11/12 05:55:45;;;;;;;;;;;8.70;99.90;;;;;;5052867;28;20051;-84
2022/11/12 05:58:11;;;;;;;;;;;8.70;99.90;;;;;;5068883;28;19999;-84
2022/11/12 06:00:40;;;;;;;;;;;8.70;99.90;;;;;;5035402;28;19960;-84
2022/11/12 06:03:10;;;;;;;;;;;8.70;99.90;;;;;;5019548;28;19929;-84
2022/11/12 06:05:35;;;;;;;;;;;8.70;99.90;;;;;;5052323;28;19936;-84
2022/11/12 06:08:02;;;;;;;;;;;8.60;99.90;;;;;;5052429;28;19925;-84
2022/11/12 06:10:28;;;;;;;;;;;8.70;99.90;;;;;;5003135;28;19925;-84
2022/11/12 06:12:54;;;;;;;;;;;8.70;99.90;;;;;;5035858;28;20297;-84
2022/11/12 06:15:19;;;;;;;;;;;8.60;99.90;;;;;;5002850;28;19925;-84
2022/11/12 06:17:45;;;;;;;;;;;8.60;99.90;;;;;;5019193;28;20390;-84
2022/11/12 06:20:11;;;;;;;;;;;8.70;99.90;;;;;;5019441;28;19932;-84
2022/11/12 06:22:36;;;;;;;;;;;8.70;99.90;;;;;;5018770;28;19932;-84
2022/11/12 06:25:03;;;;;;;;;;;8.70;99.90;;;;;;5019152;28;19929;-84
2022/11/12 06:27:28;;;;;;;;;;;8.70;99.90;;;;;;5035184;28;20008;-85
2022/11/12 06:29:54;;;;;;;;;;;8.70;99.90;;;;;;5019432;28;19929;-84
2022/11/12 06:32:20;;;;;;;;;;;8.70;99.90;;;;;;5018843;28;19932;-85
2022/11/12 06:34:45;;;;;;;;;;;8.70;99.90;;;;;;5052074;28;20289;-83
2022/11/12 06:37:11;;;;;;;;;;;8.70;99.90;;;;;;5018610;28;19984;-83
2022/11/12 06:39:36;;;;;;;;;;;8.70;99.90;;;;;;5018622;28;19925;-83
2022/11/12 06:42:02;;;;;;;;;;;8.70;99.90;;;;;;5018511;28;19925;-84
2022/11/12 06:44:27;;;;;;;;;;;8.70;99.90;;;;;;5034954;28;19932;-84
2022/11/12 06:46:53;;;;;;;;;;;8.70;99.90;;;;;;5051676;28;19925;-83
2022/11/12 06:49:19;;;;;;;;;;;8.70;99.90;;;;;;5068354;28;19926;-84
2022/11/12 06:51:44;;;;;;;;;;;8.70;99.90;;;;;;5034748;28;19926;-84
2022/11/12 06:54:10;;;;;;;;;;;8.70;99.90;;;;;;5001242;28;19932;-84
2022/11/12 06:56:35;;;;;;;;;;;8.70;99.90;;;;;;5001992;28;20043;-84
2022/11/12 06:59:01;;;;;;;;;;;8.60;99.90;;;;;;5002214;28;19932;-84
2022/11/12 07:01:27;;;;;;;;;;;8.60;99.90;;;;;;5018123;28;19925;-85
2022/11/12 07:03:52;;;;;;;;;;;8.60;99.90;;;;;;5001768;28;19925;-84
2022/11/12 07:06:19;;;;;;;;;;;8.70;99.90;;;;;;5051190;28;20011;-84
2022/11/12 07:08:48;;;;;;;;;;;8.70;99.90;;;;;;5068111;28;20361;-84
2022/11/12 07:11:15;;;;;;;;;;;8.80;99.90;;;;;;5034732;28;20004;-84
2022/11/12 07:13:43;;;;;;;;;;;8.70;99.90;;;;;;5018137;28;19925;-84
2022/11/12 07:16:09;;;;;;;;;;;8.70;99.90;;;;;;5001637;28;20361;-84
2022/11/12 07:18:35;;;;;;;;;;;8.70;99.90;;;;;;5001826;28;20012;-84
2022/11/12 07:21:03;;;;;;;;;;;8.80;99.90;;;;;;5034254;28;20016;-84
2022/11/12 07:23:29;;;;;;;;;;;8.70;99.90;;;;;;5017341;28;20015;-85
2022/11/12 07:26:16;;;;;;;;;;;8.80;99.90;;;;;;5017959;28;19925;-84
2022/11/12 07:28:42;;;;;;;;;;;8.80;99.90;;;;;;5033818;28;19925;-84
2022/11/12 07:31:12;;;;;;;;;;;8.80;99.90;;;;;;5050860;28;19925;-86
2022/11/12 07:33:37;;;;;;;;;;;8.80;99.90;;;;;;5067088;28;19925;-85
2022/11/12 07:36:04;;;;;;;;;;;8.90;99.90;;;;;;5050811;28;19948;-89
2022/11/12 07:38:31;;;;;;;;;;;8.80;99.90;;;;;;5006360;28;19933;-86
2022/11/12 07:41:00;;;;;;;;;;;8.80;99.90;;;;;;5049154;28;19929;-86
2022/11/12 07:43:26;;;;;;;;;;;8.80;99.90;;;;;;5047144;28;19929;-86
2022/11/12 07:45:52;;;;;;;;;;;8.80;99.90;;;;;;4997688;28;19979;-87
2022/11/12 07:48:17;;;;;;;;;;;8.70;99.90;;;;;;5017520;28;20025;-86
2022/11/12 07:50:43;;;;;;;;;;;8.80;99.90;;;;;;5016861;28;19951;-86
2022/11/12 07:53:09;;;;;;;;;;;8.90;99.90;;;;;;5033901;28;19925;-87
2022/11/12 07:55:34;;;;;;;;;;;8.90;99.90;;;;;;5050535;28;19932;-87
2022/11/12 07:58:00;;;;;;;;;;;8.90;99.90;;;;;;5017292;28;20014;-86
2022/11/12 08:00:25;;;;;;;;;;;8.90;99.90;;;;;;5000988;28;19930;-86
2022/11/12 08:02:51;;;;;;;;;;;8.90;99.90;;;;;;5066748;28;20006;-87
2022/11/12 08:05:17;;;;;;;;;;;8.80;99.90;;;;;;5017602;28;19925;-87
2022/11/12 08:07:42;;;;;;;;;;;8.80;99.90;;;;;;5012976;28;20020;-88
2022/11/12 08:10:08;;;;;;;;;;;8.90;99.90;;;;;;5036425;28;19925;-88
2022/11/12 08:12:34;;;;;;;;;;;8.90;99.90;;;;;;5069310;28;19925;-89
2022/11/12 08:14:59;;;;;;;;;;;8.90;99.90;;;;;;5015653;28;19925;-87
2022/11/12 08:17:25;;;;;;;;;;;8.90;99.90;;;;;;5037657;28;20019;-82
2022/11/12 08:19:54;;;;;;;;;;;8.90;99.90;;;;;;5056657;28;19929;-89
2022/11/12 08:22:20;;;;;;;;;;;8.90;99.90;;;;;;5056249;28;20373;-83
2022/11/12 08:24:45;;;;;;;;;;;8.90;99.90;;;;;;5045016;28;19956;-87
2022/11/12 08:27:11;;;;;;;;;;;8.90;99.90;;;;;;5066953;28;19929;-86
2022/11/12 08:29:36;;;;;;;;;;;8.90;99.90;;;;;;5010804;28;19935;-87
2022/11/12 08:32:02;;;;;;;;;;;8.90;99.90;;;;;;5041897;28;20289;-86
2022/11/12 08:34:27;;;;;;;;;;;8.90;99.90;;;;;;5016322;28;20038;-85
2022/11/12 08:36:53;;;;;;;;;;;8.90;99.90;;;;;;5016755;28;20031;-86
2022/11/12 08:39:18;;;;;;;;;;;8.90;99.90;;;;;;5049698;28;19932;-86
2022/11/12 08:41:44;;;;;;;;;;;8.90;99.90;;;;;;5049451;28;19939;-86
2022/11/12 08:44:09;;;;;;;;;;;8.90;99.90;;;;;;5066390;28;19925;-85
2022/11/12 08:46:35;;;;;;;;;;;8.90;99.90;;;;;;5023897;28;19924;-86
2022/11/12 08:49:01;;;;;;;;;;;8.90;99.90;;;;;;5052949;28;19975;-86
2022/11/12 08:51:26;;;;;;;;;;;9.00;99.90;;;;;;5069671;28;19933;-86
2022/11/12 08:53:52;;;;;;;;;;;9.00;99.90;;;;;;5068932;28;20018;-86
2022/11/12 08:56:17;;;;;;;;;;;9.00;99.90;;;;;;5052873;28;19933;-86
2022/11/12 08:58:43;;;;;;;;;;;8.90;99.90;;;;;;5033118;28;19969;-93
2022/11/12 09:01:09;;;;;;;;;;;9.00;99.90;;;;;;5033558;28;20420;-89
2022/11/12 09:03:34;;;;;;;;;;;8.90;99.90;;;;;;5049440;28;19948;-86
2022/11/12 09:06:04;;;;;;;;;;;9.00;99.90;;;;;;5049294;28;19925;-85
2022/11/12 09:08:31;;;;;;;;;;;9.00;99.90;;;;;;5002123;28;20376;-84
2022/11/12 09:10:58;;;;;;;;;;;9.00;99.90;;;;;;5045900;28;19931;-84
2022/11/12 09:13:23;;;;;;;;;;;8.90;99.90;;;;;;5044020;28;19925;-86
2022/11/12 09:15:49;;;;;;;;;;;8.90;99.90;;;;;;5013402;28;19940;-87
2022/11/12 09:18:15;;;;;;;;;;;8.90;99.90;;;;;;4999426;28;19988;-87
2022/11/12 09:20:41;;;;;;;;;;;8.90;99.90;;;;;;5065118;28;20008;-89
2022/11/12 09:23:10;;;;;;;;;;;8.90;99.90;;;;;;4998869;28;20004;-86
2022/11/12 09:25:36;;;;;;;;;;;8.80;99.90;;;;;;5014772;28;19929;-87
2022/11/12 09:28:09;;;;;;;;;;;8.70;99.90;;;;;;5015050;28;19925;-87
2022/11/12 09:30:35;;;;;;;;;;;8.70;99.90;;;;;;5048085;28;20403;-87
2022/11/12 09:33:01;;;;;;;;;;;8.70;99.90;;;;;;5047018;28;19925;-89
2022/11/12 09:35:26;;;;;;;;;;;8.70;99.90;;;;;;5048891;28;19925;-86
2022/11/12 09:37:52;;;;;;;;;;;8.80;99.90;;;;;;5040121;28;19947;-87
2022/11/12 09:40:18;;;;;;;;;;;8.80;99.90;;;;;;5055488;28;19965;-89
2022/11/12 09:42:46;;;;;;;;;;;8.80;99.90;;;;;;5014423;28;19925;-88
2022/11/12 09:45:17;;;;;;;;;;;8.80;99.90;;;;;;5048633;28;19947;-90
2022/11/12 09:47:49;;;;;;;;;;;8.70;99.90;;;;;;5064919;28;19932;-91
2022/11/12 09:50:25;;;;;;;;;;;8.80;99.90;;;;;;5065082;28;19983;-91
2022/11/12 09:52:58;;;;;;;;;;;8.80;99.90;;;;;;5052282;28;20416;-89
2022/11/12 09:55:32;;;;;;;;;;;8.70;99.90;;;;;;5014935;28;20020;-87
2022/11/12 09:57:58;;;;;;;;;;;8.80;99.90;;;;;;5015052;28;19929;-86
2022/11/12 10:00:23;;;;;;;;;;;8.70;99.90;;;;;;5015210;28;20396;-91
2022/11/12 10:03:06;;;;;;;;;;;8.70;99.90;;;;;;4997612;28;19976;-88
2022/11/12 10:05:32;;;;;;;;;;;8.70;99.90;;;;;;5032053;28;19933;-88
2022/11/12 10:08:16;;;;;;;;;;;8.60;99.90;;;;;;5049761;28;19929;-86
2022/11/12 10:10:47;;;;;;;;;;;8.70;99.90;;;;;;5051893;28;19935;-85
2022/11/12 10:13:31;;;;;;;;;;;8.60;99.90;;;;;;5035259;28;19925;-87
2022/11/12 10:18:44;;;;;;;;;;;8.60;99.90;;;;;;5034852;28;20010;-86
2022/11/12 10:21:10;;;;;;;;;;;8.70;99.90;;;;;;5017929;28;19961;-86
2022/11/12 10:23:44;;;;;;;;;;;8.70;99.90;;;;;;5017819;28;19925;-86
2022/11/12 10:26:13;;;;;;;;;;;8.70;99.90;;;;;;5051216;28;19929;-86
2022/11/12 10:28:39;;;;;;;;;;;8.60;99.90;;;;;;5018187;28;19929;-87
2022/11/12 10:31:09;;;;;;;;;;;8.60;99.90;;;;;;5051148;28;19979;-88
2022/11/12 10:33:35;;;;;;;;;;;8.50;99.90;;;;;;5033553;28;19925;-86
2022/11/12 10:36:10;;;;;;;;;;;8.60;99.90;;;;;;5050853;28;20443;-87
2022/11/12 10:38:36;;;;;;;;;;;8.50;99.90;;;;;;5065911;28;19929;-87
2022/11/12 10:41:16;;;;;;;;;;;8.60;99.90;;;;;;5031682;28;19996;-87
2022/11/12 10:43:51;;;;;;;;;;;8.70;99.90;;;;;;5015501;28;19947;-88
2022/11/12 10:46:19;;;;;;;;;;;8.60;99.90;;;;;;5015528;28;19948;-85
2022/11/12 10:48:52;;;;;;;;;;;8.60;99.90;;;;;;5034138;28;19929;-85
2022/11/12 10:51:29;;;;;;;;;;;8.70;99.90;;;;;;5044672;28;19968;-85
2022/11/12 10:53:54;;;;;;;;;;;8.60;99.90;;;;;;5028801;28;19933;-87
2022/11/12 10:56:25;;;;;;;;;;;8.50;99.90;;;;;;5048460;28;19925;-81
2022/11/12 10:59:09;;;;;;;;;;;8.50;99.90;;;;;;5031650;28;20284;-90
2022/11/12 11:01:35;;;;;;;;;;;8.50;99.90;;;;;;5048294;28;19929;-83
2022/11/12 11:04:01;;;;;;;;;;;8.50;99.90;;;;;;5013973;28;20008;-87
2022/11/12 11:06:26;;;;;;;;;;;8.40;99.90;;;;;;4998498;28;19933;-83
2022/11/12 11:08:53;;;;;;;;;;;8.40;99.90;;;;;;4998469;28;20375;-90
2022/11/12 11:11:23;;;;;;;;;;;8.40;99.90;;;;;;5016717;28;20000;-85
2022/11/12 11:13:53;;;;;;;;;;;8.40;99.90;;;;;;5017037;28;19925;-85
2022/11/12 11:16:23;;;;;;;;;;;8.40;99.90;;;;;;5017388;28;19932;-85
2022/11/12 11:18:52;;;;;;;;;;;8.50;99.90;;;;;;5066156;28;19932;-85
2022/11/12 11:21:27;;;;;;;;;;;8.40;99.90;;;;;;5017366;28;19979;-85
2022/11/12 11:23:55;;;;;;;;;;;8.40;99.90;;;;;;5016767;28;19975;-85
2022/11/12 11:26:33;;;;;;;;;;;8.40;99.90;;;;;;5050499;28;19971;-84
2022/11/12 11:29:17;;;;;;;;;;;8.40;99.90;;;;;;5033673;28;19929;-84
2022/11/12 11:31:56;;;;;;;;;;;8.40;99.90;;;;;;5033519;28;20382;-85
2022/11/12 11:34:40;;;;;;;;;;;8.40;99.90;;;;;;5015673;28;20020;-86
2022/11/12 11:37:27;;;;;;;;;;;8.30;99.90;;;;;;5033262;28;19929;-86
2022/11/12 11:40:00;;;;;;;;;;;8.40;99.90;;;;;;5049563;28;19940;-84
2022/11/12 11:42:26;;;;;;;;;;;8.40;99.90;;;;;;5066253;28;19936;-85
2022/11/12 11:44:58;;;;;;;;;;;8.40;99.90;;;;;;5032322;28;19925;-86
2022/11/12 11:47:40;;;;;;;;;;;8.50;99.90;;;;;;5016608;28;19940;-86
2022/11/12 11:50:18;;;;;;;;;;;8.40;99.90;;;;;;5015504;28;19925;-85
2022/11/12 11:52:45;;;;;;;;;;;8.40;99.90;;;;;;5029853;28;19984;-86
2022/11/12 11:55:14;;;;;;;;;;;8.40;99.90;;;;;;5046191;28;19925;-85
2022/11/12 11:57:58;;;;;;;;;;;8.40;99.90;;;;;;5024313;28;19925;-85
2022/11/12 12:00:28;;;;;;;;;;;8.40;99.90;;;;;;5032906;28;20022;-84
2022/11/12 12:03:03;;;;;;;;;;;8.40;99.90;;;;;;5032637;28;20289;-84
2022/11/12 12:05:31;;;;;;;;;;;8.40;99.90;;;;;;5016374;28;19925;-85
2022/11/12 12:08:01;;;;;;;;;;;8.40;99.90;;;;;;5032547;28;20008;-85
2022/11/12 12:11:06;;;;;;;;;;;8.50;99.90;;;;;;5048404;28;20369;-85
2022/11/12 12:13:47;;;;;;;;;;;8.40;99.90;;;;;;5003139;28;19926;-87
2022/11/12 12:16:29;;;;;;;;;;;8.50;99.90;;;;;;5004574;28;19966;-86
2022/11/12 12:19:05;;;;;;;;;;;8.40;99.90;;;;;;5009098;28;19925;-87
2022/11/12 12:21:33;;;;;;;;;;;8.50;99.90;;;;;;5015901;28;19925;-86
2022/11/12 12:24:04;;;;;;;;;;;8.40;99.90;;;;;;5048963;28;19940;-87
2022/11/12 12:26:30;;;;;;;;;;;8.40;99.90;;;;;;5065824;28;19991;-87
2022/11/12 12:29:14;;;;;;;;;;;8.40;99.90;;;;;;5065818;28;20365;-87
2022/11/12 12:31:43;;;;;;;;;;;8.50;99.90;;;;;;5015871;28;19925;-85
2022/11/12 12:34:22;;;;;;;;;;;8.50;99.90;;;;;;5030752;28;19925;-85
2022/11/12 12:36:51;;;;;;;;;;;8.50;99.90;;;;;;5031264;28;20289;-85
2022/11/12 12:39:18;;;;;;;;;;;8.50;99.90;;;;;;5009232;28;19933;-88
2022/11/12 12:42:04;;;;;;;;;;;8.50;99.90;;;;;;5045648;28;20036;-86
2022/11/12 12:45:18;;;;;;;;;;;8.60;99.90;;;;;;5013184;28;19925;-87
2022/11/12 12:47:19;;;;;;;;;;;8.60;99.90;;;;;;5021095;28;19925;-87
2022/11/12 12:49:45;;;;;;;;;;;8.70;99.90;;;;;;4998570;28;19937;-86
2022/11/12 12:52:14;;;;;;;;;;;8.70;99.90;;;;;;5031874;28;19975;-87
2022/11/12 12:54:39;;;;;;;;;;;8.80;99.90;;;;;;5030820;28;19925;-85
2022/11/12 12:57:23;;;;;;;;;;;8.80;99.90;;;;;;5048560;28;20016;-89
2022/11/12 12:59:49;;;;;;;;;;;8.90;99.90;;;;;;5046619;28;19926;-86
2022/11/12 13:02:19;;;;;;;;;;;9.10;99.90;;;;;;5031604;28;19932;-85
2022/11/12 13:04:55;;;;;;;;;;;9.00;99.90;;;;;;5015443;28;19925;-84
2022/11/12 13:07:37;;;;;;;;;;;9.10;99.90;;;;;;5031344;28;19925;-86
2022/11/12 13:10:21;;;;;;;;;;;9.10;99.90;;;;;;5015527;28;19925;-85
2022/11/12 13:13:06;;;;;;;;;;;9.30;99.90;;;;;;5049942;28;19932;-86
2022/11/12 13:15:41;;;;;;;;;;;9.40;99.90;;;;;;5049894;28;19924;-87
2022/11/12 13:18:07;;;;;;;;;;;9.50;99.90;;;;;;5031272;28;20400;-88
2022/11/12 13:20:35;;;;;;;;;;;9.50;99.90;;;;;;5015291;28;19925;-84
2022/11/12 13:23:00;;;;;;;;;;;9.40;99.90;;;;;;5031278;28;20340;-84
2022/11/12 13:25:27;;;;;;;;;;;9.50;99.90;;;;;;5015027;28;19929;-85
2022/11/12 13:27:53;;;;;;;;;;;9.70;99.90;;;;;;5044980;28;19984;-86
2022/11/12 13:30:21;;;;;;;;;;;10.10;99.90;;;;;;5012192;28;19937;-86
2022/11/12 13:32:47;;;;;;;;;;;10.00;99.90;;;;;;5041025;28;19925;-85
2022/11/12 13:35:25;;;;;;;;;;;10.00;99.90;;;;;;5048114;28;20407;-86
2022/11/12 13:38:01;;;;;;;;;;;9.90;99.90;;;;;;5048253;28;20321;-86
2022/11/12 13:40:26;;;;;;;;;;;9.90;99.90;;;;;;5048084;28;19929;-85
2022/11/12 13:42:54;;;;;;;;;;;9.90;99.90;;;;;;5032617;28;19925;-86
2022/11/12 13:45:25;;;;;;;;;;;9.80;99.90;;;;;;5035312;28;19925;-85
2022/11/12 13:47:51;;;;;;;;;;;9.80;99.90;;;;;;5034729;28;19929;-85
2022/11/12 13:50:19;;;;;;;;;;;9.70;99.90;;;;;;5051479;28;19936;-83
2022/11/12 13:52:45;;;;;;;;;;;9.70;99.90;;;;;;5042470;28;19929;-85
2022/11/12 13:55:15;;;;;;;;;;;9.80;99.90;;;;;;5018653;28;20289;-85
2022/11/12 13:57:47;;;;;;;;;;;9.80;99.90;;;;;;5064268;28;20038;-86
2022/11/12 14:00:15;;;;;;;;;;;9.80;99.90;;;;;;5054226;28;19925;-86
2022/11/12 14:02:42;;;;;;;;;;;9.90;99.90;;;;;;5071530;28;20367;-86
2022/11/12 14:05:15;;;;;;;;;;;10.00;99.90;;;;;;5055596;28;19929;-86
2022/11/12 14:07:50;;;;;;;;;;;10.00;99.90;;;;;;5002179;28;19925;-87
2022/11/12 14:10:19;;;;;;;;;;;10.10;99.90;;;;;;5050321;28;19925;-87
2022/11/12 14:12:44;;;;;;;;;;;10.10;99.90;;;;;;5051364;28;19933;-86
2022/11/12 14:15:10;;;;;;;;;;;10.10;99.90;;;;;;5034705;28;20423;-85
2022/11/12 14:17:35;;;;;;;;;;;10.00;99.90;;;;;;5034263;28;20373;-87
2022/11/12 14:20:20;;;;;;;;;;;10.00;99.90;;;;;;5018191;28;20293;-85
2022/11/12 14:22:45;;;;;;;;;;;9.90;99.90;;;;;;5017445;28;20622;-84
2022/11/12 14:25:31;;;;;;;;;;;10.00;99.90;;;;;;5051469;28;19932;-84
2022/11/12 14:27:57;;;;;;;;;;;10.00;99.90;;;;;;5067328;28;19980;-85
2022/11/12 14:30:24;;;;;;;;;;;9.90;99.90;;;;;;5001098;28;19987;-86
2022/11/12 14:32:57;;;;;;;;;;;9.90;99.90;;;;;;5049124;28;19976;-85
2022/11/12 14:35:38;;;;;;;;;;;9.80;99.90;;;;;;5067225;28;19925;-87
2022/11/12 14:38:13;;;;;;;;;;;9.80;99.90;;;;;;5067698;28;20011;-85
2022/11/12 14:40:44;;;;;;;;;;;9.80;99.90;;;;;;5033185;28;19949;-87
2022/11/12 14:43:36;;;;;;;;;;;9.80;99.90;;;;;;5033078;28;19929;-83
2022/11/12 14:46:02;;;;;;;;;;;9.70;99.90;;;;;;5016495;28;19933;-84
2022/11/12 14:48:29;;;;;;;;;;;9.60;99.90;;;;;;5017165;28;19925;-86
2022/11/12 14:51:01;;;;;;;;;;;9.70;99.90;;;;;;5017891;28;20427;-86
2022/11/12 14:53:31;;;;;;;;;;;9.70;99.90;;;;;;5032375;28;20020;-85
2022/11/12 14:55:57;;;;;;;;;;;9.60;99.90;;;;;;5033916;28;19936;-86
2022/11/12 14:58:23;;;;;;;;;;;9.60;99.90;;;;;;5017510;28;19925;-85
2022/11/12 15:00:51;;;;;;;;;;;9.50;99.90;;;;;;5033552;28;19925;-83
2022/11/12 15:03:18;;;;;;;;;;;9.50;99.90;;;;;;5016852;28;19929;-85